createdAt,value
2017-12-16T00:00:29.870Z,79.44
2017-12-16T00:01:29.604Z,79.44
2017-12-16T00:02:29.942Z,79.25
2017-12-16T00:03:29.901Z,78.96
2017-12-16T00:04:29.912Z,79.15
2017-12-16T00:05:29.929Z,79.44
2017-12-16T00:06:29.930Z,79.25
2017-12-16T00:07:29.984Z,79.25
2017-12-16T00:08:29.951Z,79.25
2017-12-16T00:09:29.959Z,79.25
2017-12-16T00:10:29.696Z,79.25
2017-12-16T00:11:29.985Z,79.15
2017-12-16T00:12:29.993Z,79.11
2017-12-16T00:13:30.003Z,79.25
2017-12-16T00:14:29.733Z,79.34
2017-12-16T00:15:30.018Z,79.25
2017-12-16T00:16:30.036Z,79.25
2017-12-16T00:17:30.042Z,79.06
2017-12-16T00:18:30.100Z,79.11
2017-12-16T00:19:30.064Z,79.21
2017-12-16T00:20:29.795Z,79.21
2017-12-16T00:21:29.802Z,79.39
2017-12-16T00:22:30.091Z,79.44
2017-12-16T00:23:30.102Z,79.39
2017-12-16T00:24:30.108Z,79.02
2017-12-16T00:25:29.845Z,78.92
2017-12-16T00:26:30.128Z,79.39
2017-12-16T00:27:30.142Z,79.11
2017-12-16T00:28:30.150Z,79.39
2017-12-16T00:29:30.157Z,79.11
2017-12-16T00:30:30.179Z,79.21
2017-12-16T00:31:30.181Z,79.21
2017-12-16T00:32:30.191Z,79.02
2017-12-16T00:33:30.198Z,79.39
2017-12-16T00:34:30.210Z,79.11
2017-12-16T00:35:29.940Z,79.21
2017-12-16T00:36:29.977Z,79.21
2017-12-16T00:37:30.239Z,79.39
2017-12-16T00:38:30.298Z,79.21
2017-12-16T00:39:29.980Z,79.11
2017-12-16T00:40:30.268Z,79.3
2017-12-16T00:41:30.272Z,79.11
2017-12-16T00:42:30.010Z,79.21
2017-12-16T00:43:30.294Z,79.39
2017-12-16T00:44:30.308Z,79.39
2017-12-16T00:45:30.315Z,79.21
2017-12-16T00:46:30.329Z,79.21
2017-12-16T00:47:30.061Z,79.49
2017-12-16T00:48:30.348Z,79.3
2017-12-16T00:49:30.353Z,79.49
2017-12-16T00:50:30.370Z,79.3
2017-12-16T00:51:30.389Z,79.21
2017-12-16T00:52:30.385Z,78.92
2017-12-16T00:53:30.397Z,79.21
2017-12-16T00:54:30.129Z,79.11
2017-12-16T00:55:30.413Z,78.83
2017-12-16T00:56:30.422Z,79.39
2017-12-16T00:57:30.447Z,79.21
2017-12-16T00:58:30.444Z,79.02
2017-12-16T00:59:30.453Z,79.39
2017-12-16T01:00:30.462Z,79.3
2017-12-16T01:01:30.469Z,79.11
2017-12-16T01:02:30.487Z,79.11
2017-12-16T01:03:30.498Z,79.49
2017-12-16T01:04:30.500Z,79.3
2017-12-16T01:05:30.520Z,78.92
2017-12-16T01:06:30.526Z,79.21
2017-12-16T01:07:30.253Z,79.3
2017-12-16T01:08:30.540Z,79.02
2017-12-16T01:09:30.549Z,79.3
2017-12-16T01:10:30.558Z,79.49
2017-12-16T01:11:30.571Z,79.49
2017-12-16T01:12:30.578Z,79.39
2017-12-16T01:13:30.319Z,79.39
2017-12-16T01:14:30.322Z,79.58
2017-12-16T01:15:30.616Z,79.3
2017-12-16T01:16:30.617Z,79.49
2017-12-16T01:17:30.623Z,79.39
2017-12-16T01:18:30.383Z,79.21
2017-12-16T01:19:30.369Z,79.21
2017-12-16T01:20:30.667Z,79.39
2017-12-16T01:21:30.668Z,79.39
2017-12-16T01:22:30.400Z,79.21
2017-12-16T01:23:30.686Z,79.3
2017-12-16T01:24:30.423Z,79.39
2017-12-16T01:25:30.427Z,79.39
2017-12-16T01:26:30.439Z,79.3
2017-12-16T01:27:30.725Z,79.39
2017-12-16T01:28:30.731Z,79.3
2017-12-16T01:29:30.741Z,79.68
2017-12-16T01:30:30.752Z,79.87
2017-12-16T01:31:30.761Z,79.39
2017-12-16T01:32:30.768Z,79.77
2017-12-16T01:33:30.785Z,79.87
2017-12-16T01:34:30.792Z,79.96
2017-12-16T01:35:30.799Z,80.06
2017-12-16T01:36:30.811Z,79.77
2017-12-16T01:37:30.821Z,79.58
2017-12-16T01:38:30.829Z,79.68
2017-12-16T01:39:30.838Z,79.49
2017-12-16T01:40:30.847Z,79.49
2017-12-16T01:41:30.582Z,79.58
2017-12-16T01:42:30.867Z,80.06
2017-12-16T01:43:30.878Z,79.58
2017-12-16T01:44:30.608Z,79.77
2017-12-16T01:45:30.897Z,79.68
2017-12-16T01:46:30.906Z,79.96
2017-12-16T01:47:30.913Z,80.15
2017-12-16T01:48:30.924Z,79.96
2017-12-16T01:49:30.934Z,80.25
2017-12-16T01:50:30.945Z,80.44
2017-12-16T01:51:30.952Z,80.44
2017-12-16T01:52:30.966Z,79.96
2017-12-16T01:53:30.975Z,80.25
2017-12-16T01:54:30.981Z,79.87
2017-12-16T01:55:30.991Z,80.34
2017-12-16T01:56:31.001Z,80.34
2017-12-16T01:57:30.735Z,80.44
2017-12-16T01:58:31.020Z,80.15
2017-12-16T01:59:30.755Z,80.25
2017-12-16T02:00:31.040Z,80.25
2017-12-16T02:01:31.050Z,80.34
2017-12-16T02:02:31.060Z,79.87
2017-12-16T02:03:31.069Z,80.25
2017-12-16T02:04:31.077Z,80.25
2017-12-16T02:05:31.092Z,80.34
2017-12-16T02:06:31.102Z,80.25
2017-12-16T02:07:31.109Z,80.34
2017-12-16T02:08:31.114Z,79.96
2017-12-16T02:09:31.146Z,80.34
2017-12-16T02:10:31.138Z,80.25
2017-12-16T02:11:30.882Z,80.15
2017-12-16T02:12:31.152Z,80.25
2017-12-16T02:13:30.885Z,80.25
2017-12-16T02:14:31.221Z,79.96
2017-12-16T02:15:31.183Z,79.68
2017-12-16T02:16:31.190Z,79.96
2017-12-16T02:17:31.198Z,79.96
2017-12-16T02:18:31.208Z,79.96
2017-12-16T02:19:31.058Z,79.96
2017-12-16T02:20:31.232Z,79.96
2017-12-16T02:21:31.242Z,80.44
2017-12-16T02:22:30.985Z,80.15
2017-12-16T02:23:31.259Z,80.06
2017-12-16T02:24:31.321Z,79.96
2017-12-16T02:25:31.276Z,80.34
2017-12-16T02:26:31.285Z,80.34
2017-12-16T02:27:31.298Z,80.44
2017-12-16T02:28:31.307Z,80.15
2017-12-16T02:29:31.322Z,80.06
2017-12-16T02:30:31.324Z,80.25
2017-12-16T02:31:31.342Z,80.25
2017-12-16T02:32:31.346Z,80.06
2017-12-16T02:33:31.354Z,80.15
2017-12-16T02:34:31.088Z,80.06
2017-12-16T02:35:31.376Z,80.06
2017-12-16T02:36:31.400Z,79.87
2017-12-16T02:37:31.393Z,80.06
2017-12-16T02:38:31.401Z,80.06
2017-12-16T02:39:31.408Z,80.06
2017-12-16T02:40:31.423Z,80.25
2017-12-16T02:41:31.433Z,80.15
2017-12-16T02:42:31.442Z,80.34
2017-12-16T02:43:31.449Z,80.06
2017-12-16T02:44:31.457Z,80.15
2017-12-16T02:45:31.474Z,80.06
2017-12-16T02:46:31.479Z,80.25
2017-12-16T02:47:31.487Z,80.06
2017-12-16T02:48:31.228Z,80.34
2017-12-16T02:49:31.562Z,79.87
2017-12-16T02:50:31.517Z,80.25
2017-12-16T02:51:31.252Z,80.34
2017-12-16T02:52:31.532Z,80.44
2017-12-16T02:53:31.269Z,80.34
2017-12-16T02:54:31.552Z,80.34
2017-12-16T02:55:31.567Z,80.34
2017-12-16T02:56:31.304Z,80.34
2017-12-16T02:57:31.590Z,80.25
2017-12-16T02:58:31.593Z,80.34
2017-12-16T02:59:31.602Z,80.34
2017-12-16T03:00:31.609Z,80.06
2017-12-16T03:01:31.620Z,80.06
2017-12-16T03:02:31.633Z,80.15
2017-12-16T03:03:31.638Z,80.25
2017-12-16T03:04:31.372Z,80.34
2017-12-16T03:05:31.656Z,80.34
2017-12-16T03:06:31.393Z,80.34
2017-12-16T03:07:31.678Z,80.34
2017-12-16T03:08:31.690Z,80.25
2017-12-16T03:09:31.421Z,80.06
2017-12-16T03:10:31.706Z,79.77
2017-12-16T03:11:31.716Z,80.25
2017-12-16T03:12:31.725Z,80.25
2017-12-16T03:13:31.734Z,79.58
2017-12-16T03:14:31.759Z,79.87
2017-12-16T03:15:31.755Z,79.49
2017-12-16T03:16:31.763Z,79.87
2017-12-16T03:17:31.500Z,79.58
2017-12-16T03:18:31.510Z,79.87
2017-12-16T03:19:31.517Z,79.87
2017-12-16T03:20:31.801Z,79.77
2017-12-16T03:21:31.814Z,79.58
2017-12-16T03:22:31.820Z,79.96
2017-12-16T03:23:31.555Z,79.82
2017-12-16T03:24:31.840Z,79.96
2017-12-16T03:25:31.948Z,79.68
2017-12-16T03:26:31.857Z,79.68
2017-12-16T03:27:31.870Z,79.96
2017-12-16T03:28:31.878Z,80.25
2017-12-16T03:29:31.888Z,79.58
2017-12-16T03:30:31.954Z,79.58
2017-12-16T03:31:31.905Z,80.06
2017-12-16T03:32:31.917Z,79.68
2017-12-16T03:33:31.923Z,79.49
2017-12-16T03:34:31.934Z,79.58
2017-12-16T03:35:31.995Z,79.68
2017-12-16T03:36:31.955Z,79.58
2017-12-16T03:37:31.968Z,79.68
2017-12-16T03:38:31.980Z,79.96
2017-12-16T03:39:31.995Z,79.87
2017-12-16T03:40:32.041Z,80.34
2017-12-16T03:41:32.000Z,80.34
2017-12-16T03:42:32.020Z,80.34
2017-12-16T03:43:32.025Z,80.25
2017-12-16T03:44:32.032Z,79.58
2017-12-16T03:45:32.141Z,79.68
2017-12-16T03:46:32.053Z,80.34
2017-12-16T03:47:32.058Z,80.34
2017-12-16T03:48:32.072Z,79.96
2017-12-16T03:49:32.079Z,79.96
2017-12-16T03:50:32.138Z,79.96
2017-12-16T03:51:32.097Z,80.15
2017-12-16T03:52:32.113Z,80.29
2017-12-16T03:53:32.117Z,79.96
2017-12-16T03:54:32.128Z,80.06
2017-12-16T03:55:31.862Z,80.15
2017-12-16T03:56:31.877Z,79.96
2017-12-16T03:57:32.161Z,80.34
2017-12-16T03:58:31.892Z,80.06
2017-12-16T03:59:31.939Z,80.15
2017-12-16T04:00:31.911Z,79.96
2017-12-16T04:01:32.200Z,80.19
2017-12-16T04:02:31.930Z,80.25
2017-12-16T04:03:32.213Z,80.15
2017-12-16T04:04:32.222Z,80.25
2017-12-16T04:05:32.239Z,80.1
2017-12-16T04:06:31.966Z,79.96
2017-12-16T04:07:32.261Z,80.1
2017-12-16T04:08:32.263Z,80.29
2017-12-16T04:09:32.274Z,80.29
2017-12-16T04:10:32.333Z,80.29
2017-12-16T04:11:32.292Z,80.1
2017-12-16T04:12:32.024Z,80.29
2017-12-16T04:13:32.310Z,80.19
2017-12-16T04:14:32.045Z,80.38
2017-12-16T04:15:32.478Z,80.38
2017-12-16T04:16:32.340Z,80.06
2017-12-16T04:17:32.348Z,80.29
2017-12-16T04:18:32.355Z,80.1
2017-12-16T04:19:32.097Z,80.1
2017-12-16T04:20:32.432Z,80.1
2017-12-16T04:21:32.387Z,80.1
2017-12-16T04:22:32.397Z,80.1
2017-12-16T04:23:32.406Z,80.15
2017-12-16T04:24:32.417Z,80.1
2017-12-16T04:25:32.474Z,80.1
2017-12-16T04:26:32.438Z,80.1
2017-12-16T04:27:32.167Z,80.1
2017-12-16T04:28:32.463Z,80.1
2017-12-16T04:29:32.466Z,80.19
2017-12-16T04:30:32.521Z,80.29
2017-12-16T04:31:32.210Z,80.29
2017-12-16T04:32:32.494Z,80.29
2017-12-16T04:33:32.505Z,80.1
2017-12-16T04:34:32.512Z,80.19
2017-12-16T04:35:32.306Z,80.1
2017-12-16T04:36:32.530Z,80.1
2017-12-16T04:37:32.545Z,80.19
2017-12-16T04:38:32.274Z,80.1
2017-12-16T04:39:32.559Z,80.29
2017-12-16T04:40:32.619Z,80.1
2017-12-16T04:41:32.580Z,80.29
2017-12-16T04:42:32.596Z,80.1
2017-12-16T04:43:32.598Z,80.38
2017-12-16T04:44:32.606Z,80.29
2017-12-16T04:45:32.666Z,80.1
2017-12-16T04:46:32.626Z,80.1
2017-12-16T04:47:32.637Z,80.38
2017-12-16T04:48:32.647Z,80.19
2017-12-16T04:49:32.656Z,80.1
2017-12-16T04:50:32.667Z,80.29
2017-12-16T04:51:32.674Z,80.1
2017-12-16T04:52:32.684Z,80.1
2017-12-16T04:53:32.696Z,80.1
2017-12-16T04:54:32.702Z,80.29
2017-12-16T04:55:32.769Z,80.29
2017-12-16T04:56:32.724Z,80.29
2017-12-16T04:57:32.495Z,80.29
2017-12-16T04:58:32.742Z,80.1
2017-12-16T04:59:32.752Z,80.1
2017-12-16T05:00:32.489Z,80.1
2017-12-16T05:01:32.507Z,80
2017-12-16T05:02:32.534Z,80.29
2017-12-16T05:03:32.789Z,79.91
2017-12-16T05:04:32.809Z,79.91
2017-12-16T05:05:32.863Z,80.38
2017-12-16T05:06:32.831Z,80.38
2017-12-16T05:07:32.832Z,80.29
2017-12-16T05:08:32.564Z,79.91
2017-12-16T05:09:32.576Z,79.91
2017-12-16T05:10:32.639Z,79.82
2017-12-16T05:11:32.593Z,80.29
2017-12-16T05:12:32.879Z,80.38
2017-12-16T05:13:32.893Z,80
2017-12-16T05:14:32.899Z,80
2017-12-16T05:15:32.959Z,79.91
2017-12-16T05:16:32.933Z,80.19
2017-12-16T05:17:32.649Z,80
2017-12-16T05:18:32.937Z,80
2017-12-16T05:19:32.950Z,80.29
2017-12-16T05:20:33.005Z,80.29
2017-12-16T05:21:32.689Z,80.48
2017-12-16T05:22:32.698Z,80.38
2017-12-16T05:23:32.983Z,80.38
2017-12-16T05:24:32.719Z,80.1
2017-12-16T05:25:33.007Z,80
2017-12-16T05:26:33.014Z,79.63
2017-12-16T05:27:33.023Z,79.82
2017-12-16T05:28:33.081Z,79.72
2017-12-16T05:29:33.044Z,80.1
2017-12-16T05:30:33.053Z,79.34
2017-12-16T05:31:32.788Z,79.63
2017-12-16T05:32:33.123Z,79.63
2017-12-16T05:33:32.806Z,79.63
2017-12-16T05:34:33.097Z,79.44
2017-12-16T05:35:33.102Z,79.63
2017-12-16T05:36:33.113Z,79.91
2017-12-16T05:37:33.186Z,79.72
2017-12-16T05:38:33.129Z,79.53
2017-12-16T05:39:33.144Z,80.1
2017-12-16T05:40:33.151Z,79.63
2017-12-16T05:41:33.165Z,79.63
2017-12-16T05:42:33.174Z,79.63
2017-12-16T05:43:33.180Z,79.82
2017-12-16T05:44:33.190Z,79.63
2017-12-16T05:45:33.199Z,79.53
2017-12-16T05:46:32.935Z,79.63
2017-12-16T05:47:33.218Z,79.63
2017-12-16T05:48:33.226Z,79.53
2017-12-16T05:49:33.237Z,80.19
2017-12-16T05:50:33.251Z,79.63
2017-12-16T05:51:33.346Z,79.72
2017-12-16T05:52:33.006Z,79.72
2017-12-16T05:53:33.276Z,79.82
2017-12-16T05:54:33.289Z,80.29
2017-12-16T05:55:33.017Z,80.29
2017-12-16T05:56:33.037Z,80.29
2017-12-16T05:57:33.040Z,80.29
2017-12-16T05:58:33.332Z,80.1
2017-12-16T05:59:33.333Z,80.38
2017-12-16T06:00:33.352Z,80.29
2017-12-16T06:01:33.356Z,80.1
2017-12-16T06:02:33.367Z,80.29
2017-12-16T06:03:33.377Z,80.29
2017-12-16T06:04:33.452Z,80.48
2017-12-16T06:05:33.394Z,80.29
2017-12-16T06:06:33.404Z,80.1
2017-12-16T06:07:33.415Z,80.38
2017-12-16T06:08:33.426Z,80.38
2017-12-16T06:09:33.433Z,80
2017-12-16T06:10:33.173Z,80.29
2017-12-16T06:11:33.449Z,80.48
2017-12-16T06:12:33.469Z,80.48
2017-12-16T06:13:33.472Z,80.19
2017-12-16T06:14:33.485Z,80.19
2017-12-16T06:15:33.489Z,80.29
2017-12-16T06:16:33.506Z,80.38
2017-12-16T06:17:33.517Z,80.48
2017-12-16T06:18:33.243Z,80
2017-12-16T06:19:33.530Z,80.29
2017-12-16T06:20:33.539Z,80.48
2017-12-16T06:21:33.554Z,80.38
2017-12-16T06:22:33.564Z,80.29
2017-12-16T06:23:33.569Z,80.19
2017-12-16T06:24:33.302Z,80.19
2017-12-16T06:25:33.587Z,80.1
2017-12-16T06:26:33.374Z,80.48
2017-12-16T06:27:33.332Z,80.19
2017-12-16T06:28:33.621Z,80.19
2017-12-16T06:29:33.351Z,80.38
2017-12-16T06:30:33.639Z,80.38
2017-12-16T06:31:33.646Z,80.29
2017-12-16T06:32:33.657Z,80.19
2017-12-16T06:33:33.673Z,80.38
2017-12-16T06:34:33.678Z,80.29
2017-12-16T06:35:33.690Z,79.91
2017-12-16T06:36:33.696Z,80.19
2017-12-16T06:37:33.705Z,80.38
2017-12-16T06:38:33.718Z,80.1
2017-12-16T06:39:33.723Z,80.29
2017-12-16T06:40:33.736Z,80.19
2017-12-16T06:41:33.749Z,80.48
2017-12-16T06:42:33.479Z,80.38
2017-12-16T06:43:33.488Z,80.57
2017-12-16T06:44:33.498Z,80.67
2017-12-16T06:45:33.510Z,80.86
2017-12-16T06:46:33.568Z,80.57
2017-12-16T06:47:33.801Z,80.38
2017-12-16T06:48:33.813Z,80.86
2017-12-16T06:49:33.625Z,80.67
2017-12-16T06:50:33.879Z,80.48
2017-12-16T06:51:33.667Z,80.57
2017-12-16T06:52:33.917Z,80.48
2017-12-16T06:53:33.863Z,80.67
2017-12-16T06:54:33.982Z,80.86
2017-12-16T06:55:33.611Z,80.86
2017-12-16T06:56:33.719Z,80.38
2017-12-16T06:57:33.626Z,80.57
2017-12-16T06:58:33.692Z,80.67
2017-12-16T06:59:33.646Z,80.48
2017-12-16T07:00:33.932Z,80.67
2017-12-16T07:01:34.122Z,80.86
2017-12-16T07:02:33.949Z,80.48
2017-12-16T07:03:33.880Z,80.48
2017-12-16T07:04:33.970Z,80.57
2017-12-16T07:05:33.981Z,80.67
2017-12-16T07:06:34.048Z,80.67
2017-12-16T07:07:33.725Z,80.67
2017-12-16T07:08:34.010Z,80.67
2017-12-16T07:09:33.743Z,80.86
2017-12-16T07:10:34.036Z,80.86
2017-12-16T07:11:33.773Z,80.48
2017-12-16T07:12:34.050Z,80.48
2017-12-16T07:13:34.064Z,80.57
2017-12-16T07:14:34.069Z,80.76
2017-12-16T07:15:34.082Z,80.67
2017-12-16T07:16:34.088Z,80.76
2017-12-16T07:17:34.102Z,80.67
2017-12-16T07:18:33.928Z,80.57
2017-12-16T07:19:34.123Z,80.67
2017-12-16T07:20:34.132Z,80.29
2017-12-16T07:21:34.233Z,80.48
2017-12-16T07:22:33.876Z,80.67
2017-12-16T07:23:34.200Z,80.48
2017-12-16T07:24:34.164Z,80.48
2017-12-16T07:25:34.181Z,80.48
2017-12-16T07:26:34.186Z,80.95
2017-12-16T07:27:34.195Z,80.95
2017-12-16T07:28:34.205Z,80.76
2017-12-16T07:29:33.947Z,80.48
2017-12-16T07:30:34.225Z,80.38
2017-12-16T07:31:33.962Z,80.57
2017-12-16T07:32:34.298Z,80.48
2017-12-16T07:33:33.981Z,80.67
2017-12-16T07:34:33.989Z,80.57
2017-12-16T07:35:34.273Z,80.86
2017-12-16T07:36:34.283Z,81.05
2017-12-16T07:37:34.477Z,81.05
2017-12-16T07:38:34.344Z,81.14
2017-12-16T07:39:34.313Z,81.05
2017-12-16T07:40:34.049Z,80.76
2017-12-16T07:41:34.333Z,80.86
2017-12-16T07:42:34.086Z,80.86
2017-12-16T07:43:34.080Z,81.05
2017-12-16T07:44:34.091Z,80.86
2017-12-16T07:45:34.375Z,80.86
2017-12-16T07:46:34.116Z,80.95
2017-12-16T07:47:34.394Z,81.05
2017-12-16T07:48:34.128Z,81.05
2017-12-16T07:49:34.412Z,80.95
2017-12-16T07:50:34.182Z,81.14
2017-12-16T07:51:34.434Z,80.95
2017-12-16T07:52:34.441Z,80.76
2017-12-16T07:53:34.451Z,80.95
2017-12-16T07:54:34.463Z,80.95
2017-12-16T07:55:34.473Z,80.95
2017-12-16T07:56:34.496Z,80.95
2017-12-16T07:57:34.494Z,81.05
2017-12-16T07:58:34.509Z,81.14
2017-12-16T07:59:34.524Z,80.95
2017-12-16T08:00:34.677Z,81.14
2017-12-16T08:01:34.585Z,81.24
2017-12-16T08:02:34.541Z,80.95
2017-12-16T08:03:34.277Z,80.95
2017-12-16T08:04:34.579Z,80.86
2017-12-16T08:05:34.573Z,81.14
2017-12-16T08:06:34.583Z,81.14
2017-12-16T08:07:34.312Z,80.95
2017-12-16T08:08:34.604Z,80.86
2017-12-16T08:09:34.335Z,80.86
2017-12-16T08:10:34.343Z,81.05
2017-12-16T08:11:34.354Z,81.05
2017-12-16T08:12:34.420Z,81.05
2017-12-16T08:13:34.651Z,80.95
2017-12-16T08:14:34.660Z,80.95
2017-12-16T08:15:34.675Z,80.95
2017-12-16T08:16:34.404Z,81.05
2017-12-16T08:17:34.748Z,81.05
2017-12-16T08:18:34.701Z,80.95
2017-12-16T08:19:34.722Z,81.14
2017-12-16T08:20:34.451Z,80.95
2017-12-16T08:21:34.766Z,81.05
2017-12-16T08:22:34.789Z,81.05
2017-12-16T08:23:34.754Z,81.14
2017-12-16T08:24:34.762Z,81.05
2017-12-16T08:25:34.493Z,81.05
2017-12-16T08:26:34.784Z,81.14
2017-12-16T08:27:34.841Z,80.95
2017-12-16T08:28:34.803Z,81.05
2017-12-16T08:29:34.810Z,80.86
2017-12-16T08:30:34.819Z,81.05
2017-12-16T08:31:34.830Z,80.76
2017-12-16T08:32:34.840Z,80.95
2017-12-16T08:33:34.852Z,80.95
2017-12-16T08:34:34.866Z,80.76
2017-12-16T08:35:34.870Z,80.86
2017-12-16T08:36:34.880Z,80.76
2017-12-16T08:37:34.942Z,81.14
2017-12-16T08:38:34.904Z,80.76
2017-12-16T08:39:34.909Z,80.95
2017-12-16T08:40:34.926Z,81.05
2017-12-16T08:41:34.944Z,80.95
2017-12-16T08:42:34.950Z,81.09
2017-12-16T08:43:34.958Z,80.99
2017-12-16T08:44:34.684Z,80.99
2017-12-16T08:45:35.069Z,80.95
2017-12-16T08:46:34.707Z,80.95
2017-12-16T08:47:34.988Z,80.86
2017-12-16T08:48:34.999Z,80.9
2017-12-16T08:49:35.020Z,81.09
2017-12-16T08:50:35.020Z,81.14
2017-12-16T08:51:34.753Z,81.18
2017-12-16T08:52:35.044Z,80.95
2017-12-16T08:53:35.051Z,80.95
2017-12-16T08:54:35.059Z,81.24
2017-12-16T08:55:35.073Z,81.27
2017-12-16T08:56:35.091Z,80.95
2017-12-16T08:57:35.091Z,81.05
2017-12-16T08:58:35.143Z,81.05
2017-12-16T08:59:34.889Z,81.05
2017-12-16T09:00:35.126Z,80.95
2017-12-16T09:01:35.138Z,81.09
2017-12-16T09:02:35.144Z,80.95
2017-12-16T09:03:35.157Z,80.95
2017-12-16T09:04:34.884Z,80.76
2017-12-16T09:05:34.909Z,80.9
2017-12-16T09:06:35.182Z,81.18
2017-12-16T09:07:35.191Z,81.18
2017-12-16T09:08:35.217Z,81.09
2017-12-16T09:09:35.216Z,81.18
2017-12-16T09:10:34.968Z,80.99
2017-12-16T09:11:35.234Z,80.9
2017-12-16T09:12:35.247Z,80.52
2017-12-16T09:13:35.261Z,80.9
2017-12-16T09:14:35.264Z,80.52
2017-12-16T09:15:35.273Z,80.62
2017-12-16T09:16:35.281Z,80.8
2017-12-16T09:17:35.377Z,80.52
2017-12-16T09:18:35.306Z,80.62
2017-12-16T09:19:35.041Z,80.9
2017-12-16T09:20:35.325Z,81.09
2017-12-16T09:21:35.333Z,81.09
2017-12-16T09:22:35.344Z,80.99
2017-12-16T09:23:35.075Z,80.99
2017-12-16T09:24:35.367Z,81.09
2017-12-16T09:25:35.376Z,81.18
2017-12-16T09:26:35.392Z,80.99
2017-12-16T09:27:35.122Z,80.99
2017-12-16T09:28:35.410Z,81.18
2017-12-16T09:29:35.418Z,81.09
2017-12-16T09:30:35.428Z,80.8
2017-12-16T09:31:35.439Z,80.99
2017-12-16T09:32:35.447Z,80.9
2017-12-16T09:33:35.456Z,80.99
2017-12-16T09:34:35.500Z,80.99
2017-12-16T09:35:35.472Z,80.8
2017-12-16T09:36:35.486Z,80.99
2017-12-16T09:37:35.500Z,81.27
2017-12-16T09:38:35.509Z,80.8
2017-12-16T09:39:35.525Z,80.71
2017-12-16T09:40:35.526Z,80.9
2017-12-16T09:41:35.538Z,80.71
2017-12-16T09:42:35.271Z,80.62
2017-12-16T09:43:35.559Z,80.99
2017-12-16T09:44:35.571Z,80.71
2017-12-16T09:45:35.583Z,80.9
2017-12-16T09:46:35.595Z,80.9
2017-12-16T09:47:35.599Z,80.99
2017-12-16T09:48:35.333Z,80.99
2017-12-16T09:49:35.342Z,81.18
2017-12-16T09:50:35.357Z,80.9
2017-12-16T09:51:35.641Z,80.99
2017-12-16T09:52:35.651Z,81.09
2017-12-16T09:53:35.664Z,81.09
2017-12-16T09:54:35.709Z,81.09
2017-12-16T09:55:35.407Z,81.18
2017-12-16T09:56:35.414Z,80.99
2017-12-16T09:57:35.428Z,80.9
2017-12-16T09:58:35.764Z,80.9
2017-12-16T09:59:35.448Z,81.09
2017-12-16T10:00:35.731Z,80.71
2017-12-16T10:01:35.748Z,80.99
2017-12-16T10:02:35.757Z,80.9
2017-12-16T10:03:35.538Z,80.99
2017-12-16T10:04:35.774Z,81.09
2017-12-16T10:05:35.783Z,81.09
2017-12-16T10:06:35.801Z,81.18
2017-12-16T10:07:35.811Z,81.18
2017-12-16T10:08:35.588Z,81.09
2017-12-16T10:09:35.553Z,80.99
2017-12-16T10:10:35.562Z,80.99
2017-12-16T10:11:35.571Z,80.71
2017-12-16T10:12:35.927Z,80.8
2017-12-16T10:13:35.642Z,80.9
2017-12-16T10:14:35.884Z,81.18
2017-12-16T10:15:35.888Z,81.09
2017-12-16T10:16:35.898Z,80.9
2017-12-16T10:17:35.908Z,80.71
2017-12-16T10:18:36.016Z,80.52
2017-12-16T10:19:35.928Z,80.71
2017-12-16T10:20:35.941Z,80.43
2017-12-16T10:21:35.959Z,80.62
2017-12-16T10:22:35.961Z,80.52
2017-12-16T10:23:36.022Z,80.62
2017-12-16T10:24:35.984Z,80.43
2017-12-16T10:25:35.998Z,80.62
2017-12-16T10:26:36.003Z,80.04
2017-12-16T10:27:35.746Z,80.24
2017-12-16T10:28:36.027Z,80.43
2017-12-16T10:29:35.761Z,80.24
2017-12-16T10:30:36.047Z,80.14
2017-12-16T10:31:36.063Z,79.95
2017-12-16T10:32:36.068Z,79.66
2017-12-16T10:33:36.179Z,79.85
2017-12-16T10:34:36.089Z,79.66
2017-12-16T10:35:35.823Z,79.85
2017-12-16T10:36:35.831Z,79.66
2017-12-16T10:37:36.126Z,79.66
2017-12-16T10:38:35.856Z,80.04
2017-12-16T10:39:36.142Z,80.33
2017-12-16T10:40:35.874Z,80.43
2017-12-16T10:41:36.163Z,79.66
2017-12-16T10:42:35.895Z,79.76
2017-12-16T10:43:35.960Z,79.95
2017-12-16T10:44:36.192Z,79.66
2017-12-16T10:45:36.204Z,79.66
2017-12-16T10:46:36.215Z,80.33
2017-12-16T10:47:36.226Z,80.43
2017-12-16T10:48:36.248Z,80.52
2017-12-16T10:49:35.969Z,80.43
2017-12-16T10:50:36.259Z,80.33
2017-12-16T10:51:36.269Z,80.33
2017-12-16T10:52:36.279Z,80.33
2017-12-16T10:53:36.303Z,80.04
2017-12-16T10:54:36.023Z,79.76
2017-12-16T10:55:36.309Z,80.24
2017-12-16T10:56:36.320Z,80.43
2017-12-16T10:57:36.332Z,80.24
2017-12-16T10:58:36.069Z,80.62
2017-12-16T10:59:36.349Z,80.52
2017-12-16T11:00:36.361Z,80.9
2017-12-16T11:01:36.098Z,80.71
2017-12-16T11:02:36.105Z,80.71
2017-12-16T11:03:36.396Z,80.52
2017-12-16T11:04:36.128Z,80.52
2017-12-16T11:05:36.140Z,80.43
2017-12-16T11:06:36.423Z,80.52
2017-12-16T11:07:36.168Z,80.8
2017-12-16T11:08:36.173Z,80.43
2017-12-16T11:09:36.453Z,80.14
2017-12-16T11:10:36.468Z,80.62
2017-12-16T11:11:36.479Z,80.43
2017-12-16T11:12:36.494Z,80.9
2017-12-16T11:13:36.271Z,80.62
2017-12-16T11:14:36.233Z,80.71
2017-12-16T11:15:36.247Z,80.71
2017-12-16T11:16:36.255Z,80.62
2017-12-16T11:17:36.540Z,80.62
2017-12-16T11:18:36.554Z,80.52
2017-12-16T11:19:36.561Z,80.9
2017-12-16T11:20:36.588Z,80.62
2017-12-16T11:21:36.597Z,80.71
2017-12-16T11:22:36.647Z,80.52
2017-12-16T11:23:36.658Z,80.52
2017-12-16T11:24:36.622Z,80.62
2017-12-16T11:25:36.353Z,80.43
2017-12-16T11:26:36.359Z,80.9
2017-12-16T11:27:36.369Z,80.43
2017-12-16T11:28:36.378Z,80.62
2017-12-16T11:29:36.670Z,80.52
2017-12-16T11:30:36.678Z,80.62
2017-12-16T11:31:36.688Z,80.8
2017-12-16T11:32:36.697Z,80.8
2017-12-16T11:33:36.432Z,80.52
2017-12-16T11:34:36.446Z,80.9
2017-12-16T11:35:36.453Z,80.9
2017-12-16T11:36:36.738Z,80.99
2017-12-16T11:37:36.751Z,80.8
2017-12-16T11:38:36.760Z,81.09
2017-12-16T11:39:36.770Z,80.99
2017-12-16T11:40:36.783Z,81.09
2017-12-16T11:41:36.517Z,80.71
2017-12-16T11:42:36.802Z,80.9
2017-12-16T11:43:36.539Z,80.52
2017-12-16T11:44:36.548Z,80.9
2017-12-16T11:45:36.560Z,80.99
2017-12-16T11:46:36.571Z,80.99
2017-12-16T11:47:36.858Z,80.9
2017-12-16T11:48:36.592Z,81.09
2017-12-16T11:49:36.884Z,81.09
2017-12-16T11:50:36.893Z,80.9
2017-12-16T11:51:36.622Z,80.99
2017-12-16T11:52:36.915Z,81.09
2017-12-16T11:53:36.918Z,80.99
2017-12-16T11:54:36.932Z,80.99
2017-12-16T11:55:36.945Z,81.18
2017-12-16T11:56:36.951Z,80.8
2017-12-16T11:57:36.970Z,80.99
2017-12-16T11:58:37.027Z,80.99
2017-12-16T11:59:36.992Z,80.8
2017-12-16T12:00:36.993Z,80.84
2017-12-16T12:01:37.006Z,80.99
2017-12-16T12:02:37.021Z,80.99
2017-12-16T12:03:37.027Z,81.04
2017-12-16T12:04:37.043Z,81.18
2017-12-16T12:05:37.048Z,81.04
2017-12-16T12:06:37.059Z,80.99
2017-12-16T12:07:37.071Z,81.13
2017-12-16T12:08:37.085Z,81.09
2017-12-16T12:09:37.090Z,80.84
2017-12-16T12:10:37.107Z,81.13
2017-12-16T12:11:36.834Z,80.99
2017-12-16T12:12:36.846Z,80.65
2017-12-16T12:13:37.135Z,80.56
2017-12-16T12:14:37.144Z,81.04
2017-12-16T12:15:37.158Z,81.13
2017-12-16T12:16:36.888Z,81.13
2017-12-16T12:17:37.178Z,81.23
2017-12-16T12:18:36.909Z,81.04
2017-12-16T12:19:37.199Z,80.84
2017-12-16T12:20:37.207Z,80.84
2017-12-16T12:21:37.218Z,81.04
2017-12-16T12:22:36.955Z,81.23
2017-12-16T12:23:37.243Z,81.13
2017-12-16T12:24:37.249Z,81.04
2017-12-16T12:25:37.264Z,80.84
2017-12-16T12:26:37.273Z,80.84
2017-12-16T12:27:37.282Z,81.23
2017-12-16T12:28:37.338Z,80.94
2017-12-16T12:29:37.513Z,81.23
2017-12-16T12:30:37.316Z,81.13
2017-12-16T12:31:37.050Z,81.13
2017-12-16T12:32:37.335Z,81.13
2017-12-16T12:33:37.346Z,81.13
2017-12-16T12:34:37.365Z,81.13
2017-12-16T12:35:37.365Z,81.23
2017-12-16T12:36:37.380Z,81.23
2017-12-16T12:37:37.120Z,81.13
2017-12-16T12:38:37.396Z,81.13
2017-12-16T12:39:37.412Z,81.04
2017-12-16T12:40:37.147Z,81.04
2017-12-16T12:41:37.430Z,80.65
2017-12-16T12:42:37.447Z,80.65
2017-12-16T12:43:37.179Z,80.75
2017-12-16T12:44:37.462Z,80.84
2017-12-16T12:45:37.199Z,80.75
2017-12-16T12:46:37.210Z,81.04
2017-12-16T12:47:37.500Z,80.56
2017-12-16T12:48:37.231Z,80.75
2017-12-16T12:49:37.243Z,80.75
2017-12-16T12:50:37.529Z,80.94
2017-12-16T12:51:37.539Z,80.46
2017-12-16T12:52:37.552Z,80.65
2017-12-16T12:53:37.564Z,80.56
2017-12-16T12:54:37.573Z,80.75
2017-12-16T12:55:37.581Z,80.56
2017-12-16T12:56:37.594Z,80.37